createdAt,value
2023-05-01T00:02:28.041Z,62.90
2023-05-01T00:05:00.503Z,62.80
2023-05-01T00:07:33.650Z,63.88
2023-05-01T00:10:05.761Z,65.21
2023-05-01T00:12:37.814Z,66.29
2023-05-01T00:15:11.358Z,67.55
2023-05-01T00:17:46.410Z,66.17
2023-05-01T00:20:18.151Z,66.39
2023-05-01T00:22:50.184Z,63.38
2023-05-01T00:25:22.550Z,62.47
2023-05-01T00:27:54.760Z,61.88
2023-05-01T00:30:28.131Z,61.33
2023-05-01T00:33:03.388Z,61.07
2023-05-01T00:35:37.076Z,60.44
2023-05-01T00:38:09.716Z,60.21
2023-05-01T00:40:47.036Z,60.50
2023-05-01T00:43:19.823Z,60.34
2023-05-01T00:45:51.971Z,60.26
2023-05-01T00:48:28.184Z,60.71
2023-05-01T00:51:01.715Z,60.64
2023-05-01T00:53:34.666Z,60.63
2023-05-01T00:56:09.959Z,60.51
2023-05-01T00:58:42.469Z,60.47
2023-05-01T01:01:15.657Z,60.63
2023-05-01T01:03:51.545Z,60.64
2023-05-01T01:06:31.722Z,60.73
2023-05-01T01:09:16.642Z,60.81
2023-05-01T01:12:01.282Z,60.81
2023-05-01T01:14:39.874Z,61.02
2023-05-01T01:17:19.768Z,61.26
2023-05-01T01:20:17.801Z,61.70
2023-05-01T01:22:54.541Z,61.42
2023-05-01T01:25:50.774Z,61.79
2023-05-01T01:28:46.751Z,61.44
2023-05-01T01:31:24.212Z,61.82
2023-05-01T01:34:08.103Z,62.04
2023-05-01T01:36:50.089Z,62.26
2023-05-01T01:39:34.004Z,62.72
2023-05-01T01:42:13.072Z,63.00
2023-05-01T01:45:03.171Z,63.00
2023-05-01T01:47:38.014Z,63.20
2023-05-01T01:50:16.292Z,65.36
2023-05-01T01:52:52.524Z,66.03
2023-05-01T01:55:30.941Z,64.86
2023-05-01T01:58:05.385Z,64.72
2023-05-01T02:00:39.311Z,64.51
2023-05-01T02:03:14.251Z,64.58
2023-05-01T02:05:51.488Z,65.04
2023-05-01T02:08:26.778Z,64.84
2023-05-01T02:11:02.204Z,64.59
2023-05-01T02:13:36.714Z,64.66
2023-05-01T02:16:09.944Z,65.14
2023-05-01T02:18:43.970Z,65.62
2023-05-01T02:21:19.433Z,65.27
2023-05-01T02:23:51.863Z,65.17
2023-05-01T02:26:28.944Z,65.25
2023-05-01T02:29:01.295Z,65.92
2023-05-01T02:31:33.300Z,66.07
2023-05-01T02:34:05.777Z,65.96
2023-05-01T02:36:40.510Z,65.70
2023-05-01T02:39:13.124Z,65.65
2023-05-01T02:41:48.207Z,66.19
2023-05-01T02:44:22.716Z,66.27
2023-05-01T02:46:57.681Z,66.23
2023-05-01T02:49:31.907Z,66.47
2023-05-01T02:52:07.287Z,66.67
2023-05-01T02:54:39.875Z,66.83
2023-05-01T02:57:14.087Z,66.58
2023-05-01T02:59:46.387Z,66.63
2023-05-01T03:02:18.584Z,66.69
2023-05-01T03:04:50.737Z,66.60
2023-05-01T03:07:25.287Z,66.91
2023-05-01T03:09:57.687Z,66.50
2023-05-01T03:12:29.761Z,66.66
2023-05-01T03:15:02.384Z,66.81
2023-05-01T03:17:34.604Z,66.75
2023-05-01T03:20:07.625Z,66.40
2023-05-01T03:22:42.406Z,66.07
2023-05-01T03:25:14.620Z,65.83
2023-05-01T03:27:46.540Z,65.84
2023-05-01T03:30:18.903Z,66.58
2023-05-01T03:32:50.764Z,66.66
2023-05-01T03:35:23.252Z,66.14
2023-05-01T03:37:57.583Z,66.23
2023-05-01T03:40:30.124Z,66.06
2023-05-01T03:43:02.142Z,65.94
2023-05-01T03:45:34.210Z,66.27
2023-05-01T03:48:06.393Z,66.06
2023-05-01T03:50:38.564Z,65.73
2023-05-01T03:53:13.733Z,65.66
2023-05-01T03:55:46.061Z,65.26
2023-05-01T03:58:18.273Z,65.35
2023-05-01T04:00:51.413Z,65.75
2023-05-01T04:03:23.754Z,65.48
2023-05-01T04:05:56.397Z,65.27
2023-05-01T04:08:31.383Z,64.90
2023-05-01T04:11:03.995Z,64.58
2023-05-01T04:13:36.325Z,65.12
2023-05-01T04:16:10.070Z,64.85
2023-05-01T04:18:43.018Z,64.59
2023-05-01T04:21:18.154Z,64.45
2023-05-01T04:23:52.983Z,64.19
2023-05-01T04:26:25.547Z,63.70
2023-05-01T04:28:57.608Z,63.85
2023-05-01T04:31:30.149Z,63.48
2023-05-01T04:34:02.333Z,62.92
2023-05-01T04:36:34.803Z,63.13
2023-05-01T04:39:09.881Z,62.75
2023-05-01T04:41:42.445Z,62.61
2023-05-01T04:44:14.664Z,62.30
2023-05-01T04:46:47.045Z,62.24
2023-05-01T04:49:19.744Z,61.72
2023-05-01T04:51:52.251Z,61.67
2023-05-01T04:54:28.510Z,61.25
2023-05-01T04:57:00.753Z,61.12
2023-05-01T04:59:33.062Z,61.17
2023-05-01T05:02:05.884Z,61.12
2023-05-01T05:04:38.213Z,60.25
2023-05-01T05:07:10.753Z,60.51
2023-05-01T05:09:45.382Z,60.08
2023-05-01T05:12:17.971Z,60.00
2023-05-01T05:14:49.737Z,59.38
2023-05-01T05:17:36.984Z,58.93
2023-05-01T05:20:10.379Z,58.43
2023-05-01T05:22:42.750Z,57.83
2023-05-01T05:25:17.327Z,57.65
2023-05-01T05:27:49.590Z,57.42
2023-05-01T05:30:21.673Z,57.68
2023-05-01T05:32:54.060Z,57.16
2023-05-01T05:35:26.095Z,56.94
2023-05-01T05:37:58.909Z,56.39
2023-05-01T05:40:33.881Z,55.71
2023-05-01T05:43:06.148Z,54.97
2023-05-01T05:45:38.065Z,54.82
2023-05-01T05:48:10.474Z,54.45
2023-05-01T05:50:43.117Z,52.73
2023-05-01T05:53:15.557Z,48.96
2023-05-01T05:56:02.973Z,44.46
2023-05-01T05:58:35.195Z,41.38
2023-05-01T06:01:32.827Z,38.92
2023-05-01T06:04:04.950Z,38.18
2023-05-01T06:06:38.010Z,37.09
2023-05-01T06:09:13.218Z,37.36
2023-05-01T06:11:48.168Z,35.31
2023-05-01T06:14:20.276Z,33.42
2023-05-01T06:16:52.265Z,32.92
2023-05-01T06:19:24.530Z,33.15
2023-05-01T06:21:56.663Z,32.88
2023-05-01T06:24:29.477Z,32.53
2023-05-01T06:27:08.797Z,32.51
2023-05-01T06:29:41.132Z,31.96
2023-05-01T06:32:13.045Z,31.83
2023-05-01T06:34:45.402Z,31.91
2023-05-01T06:37:17.224Z,31.49
2023-05-01T06:39:50.870Z,30.87
2023-05-01T06:45:24.870Z,31.25
2023-05-01T06:47:56.066Z,31.29
2023-05-01T06:50:29.422Z,31.60
2023-05-01T06:53:03.415Z,33.02
2023-05-01T06:55:36.013Z,31.21
2023-05-01T06:58:22.395Z,30.17
2023-05-01T07:00:59.520Z,31.24
2023-05-01T07:03:31.579Z,30.11
2023-05-01T07:06:04.861Z,31.14
2023-05-01T07:08:36.801Z,30.97
2023-05-01T07:11:09.327Z,30.14
2023-05-01T07:13:41.319Z,28.88
2023-05-01T07:16:16.892Z,29.09
2023-05-01T07:18:49.342Z,29.22
2023-05-01T07:21:21.949Z,28.51
2023-05-01T07:23:53.963Z,28.99
2023-05-01T07:26:26.638Z,29.10
2023-05-01T07:28:58.665Z,29.81
2023-05-01T07:31:33.986Z,30.02
2023-05-01T07:34:06.001Z,29.84
2023-05-01T07:36:38.847Z,29.13
2023-05-01T07:39:10.801Z,28.24
2023-05-01T07:41:43.281Z,28.05
2023-05-01T07:44:15.343Z,29.62
2023-05-01T07:46:50.535Z,28.71
2023-05-01T07:52:11.936Z,30.83
2023-05-01T07:54:43.977Z,30.35
2023-05-01T07:57:20.427Z,30.68
2023-05-01T07:59:52.497Z,29.72
2023-05-01T08:02:27.633Z,28.60
2023-05-01T08:05:00.433Z,28.76
2023-05-01T08:07:33.321Z,27.94
2023-05-01T08:10:05.766Z,29.77
2023-05-01T08:12:40.180Z,28.62
2023-05-01T08:15:13.290Z,28.50
2023-05-01T08:17:48.237Z,28.65
2023-05-01T08:20:20.399Z,28.98
2023-05-01T08:22:56.347Z,28.61
2023-05-01T08:25:34.405Z,28.41
2023-05-01T08:28:07.036Z,27.69
2023-05-01T08:30:39.050Z,27.10
2023-05-01T08:33:14.035Z,27.01
2023-05-01T08:35:46.120Z,26.78
2023-05-01T08:38:18.685Z,26.22
2023-05-01T08:40:57.395Z,26.86
2023-05-01T08:43:31.341Z,27.08
2023-05-01T08:46:03.622Z,25.61
2023-05-01T08:48:40.499Z,25.10
2023-05-01T08:51:17.000Z,24.71
2023-05-01T08:53:52.708Z,23.92
2023-05-01T08:56:25.838Z,24.41
2023-05-01T08:59:00.443Z,24.07
2023-05-01T09:01:33.874Z,24.49
2023-05-01T09:04:10.242Z,25.93
2023-05-01T09:06:45.424Z,24.80
2023-05-01T09:09:17.955Z,24.58
2023-05-01T09:11:50.257Z,25.05
2023-05-01T09:14:22.817Z,25.31
2023-05-01T09:16:54.760Z,24.67
2023-05-01T09:19:31.517Z,25.62
2023-05-01T09:22:03.885Z,24.85
2023-05-01T09:24:48.074Z,24.35
2023-05-01T09:27:20.381Z,25.26
2023-05-01T09:29:53.029Z,24.48
2023-05-01T09:32:29.204Z,26.34
2023-05-01T09:37:53.602Z,24.38
2023-05-01T09:40:31.899Z,23.60
2023-05-01T09:43:04.274Z,23.89
2023-05-01T09:45:36.946Z,23.79
2023-05-01T09:48:14.547Z,23.85
2023-05-01T09:50:50.079Z,24.53
2023-05-01T09:53:22.197Z,23.87
2023-05-01T09:56:29.586Z,24.33
2023-05-01T09:59:18.707Z,23.82
2023-05-01T10:01:52.796Z,23.63
2023-05-01T10:04:34.571Z,22.77
2023-05-01T10:07:19.103Z,23.16
2023-05-01T10:09:51.320Z,22.74
2023-05-01T10:12:28.501Z,22.78
2023-05-01T10:15:10.801Z,22.31
2023-05-01T10:17:55.938Z,24.19
2023-05-01T10:20:28.641Z,24.25
2023-05-01T10:23:04.924Z,25.17
2023-05-01T10:25:38.441Z,23.79
2023-05-01T10:28:17.178Z,23.99
2023-05-01T10:31:16.336Z,24.53
2023-05-01T10:33:50.557Z,24.55
2023-05-01T10:36:27.055Z,25.89
2023-05-01T10:39:02.618Z,23.97
2023-05-01T10:42:15.058Z,24.27
2023-05-01T10:44:48.416Z,24.87
2023-05-01T10:47:50.676Z,25.40
2023-05-01T10:50:23.501Z,25.00
2023-05-01T10:53:22.715Z,24.46
2023-05-01T10:55:57.956Z,25.24
2023-05-01T10:59:13.701Z,25.83
2023-05-01T11:02:01.963Z,25.48
2023-05-01T11:04:54.618Z,25.44
2023-05-01T11:10:31.061Z,26.36
2023-05-01T11:13:13.738Z,28.38
2023-05-01T11:15:45.821Z,26.36
2023-05-01T11:18:33.936Z,26.88
2023-05-01T11:21:06.099Z,27.95
2023-05-01T11:23:38.582Z,28.83
2023-05-01T11:26:11.458Z,28.90
2023-05-01T11:28:46.667Z,29.26
2023-05-01T11:31:21.732Z,29.20
2023-05-01T11:34:07.337Z,28.21
2023-05-01T11:37:08.525Z,27.93
2023-05-01T11:40:01.477Z,27.67
2023-05-01T11:42:33.942Z,27.31
2023-05-01T11:45:14.617Z,26.14
2023-05-01T11:47:46.972Z,25.94
2023-05-01T11:50:19.220Z,26.23
2023-05-01T11:52:53.924Z,27.48
2023-05-01T11:56:25.317Z,26.10
2023-05-01T11:59:00.006Z,27.79
2023-05-01T12:01:41.641Z,27.28
2023-05-01T12:04:32.108Z,26.07
2023-05-01T12:07:41.009Z,27.07
2023-05-01T12:10:14.091Z,27.67
2023-05-01T12:12:46.402Z,28.57
2023-05-01T12:15:18.839Z,28.91
2023-05-01T12:17:54.201Z,29.89
2023-05-01T12:20:38.625Z,28.21
2023-05-01T12:23:11.836Z,28.83
2023-05-01T12:25:44.380Z,29.68
2023-05-01T12:28:20.359Z,28.44
2023-05-01T12:30:53.276Z,28.70
2023-05-01T12:33:27.661Z,28.82
2023-05-01T12:36:27.779Z,28.47
2023-05-01T12:39:06.047Z,28.88
2023-05-01T12:41:40.025Z,29.45
2023-05-01T12:44:25.889Z,29.56
2023-05-01T12:46:59.469Z,29.13
2023-05-01T12:49:37.477Z,29.08
2023-05-01T12:52:12.240Z,29.29
2023-05-01T12:54:46.363Z,29.21
2023-05-01T12:57:19.878Z,28.81
2023-05-01T12:59:51.196Z,29.75
2023-05-01T13:02:34.422Z,29.81
2023-05-01T13:05:20.761Z,30.03
2023-05-01T13:07:54.477Z,29.02
2023-05-01T13:10:36.128Z,29.25
2023-05-01T13:13:08.832Z,29.03
2023-05-01T13:15:41.772Z,29.17
2023-05-01T13:18:14.255Z,29.79
2023-05-01T13:20:49.475Z,29.08
2023-05-01T13:23:22.331Z,29.11
2023-05-01T13:26:07.527Z,30.00
2023-05-01T13:28:49.061Z,29.15
2023-05-01T13:31:21.534Z,30.65
2023-05-01T13:33:56.418Z,28.21
2023-05-01T13:36:36.292Z,28.74
2023-05-01T13:39:21.251Z,28.71
2023-05-01T13:41:54.532Z,28.67
2023-05-01T13:44:28.750Z,29.37
2023-05-01T13:47:16.077Z,29.59
2023-05-01T13:49:51.076Z,29.51
2023-05-01T13:52:26.607Z,29.42
2023-05-01T13:55:00.738Z,29.95
2023-05-01T13:57:35.094Z,29.70
2023-05-01T14:00:28.349Z,29.86
2023-05-01T14:03:00.930Z,29.81
2023-05-01T14:05:33.668Z,29.93
2023-05-01T14:08:11.229Z,29.55
2023-05-01T14:10:44.036Z,29.95
2023-05-01T14:13:20.394Z,29.79
2023-05-01T14:15:53.708Z,29.71
2023-05-01T14:18:26.068Z,30.11
2023-05-01T14:20:58.928Z,30.71
2023-05-01T14:23:36.370Z,30.65
2023-05-01T14:26:09.480Z,30.22
2023-05-01T14:28:46.622Z,28.95
2023-05-01T14:31:27.661Z,28.88
2023-05-01T14:34:01.576Z,26.66
2023-05-01T14:36:34.307Z,28.06
2023-05-01T14:39:09.907Z,27.48
2023-05-01T14:41:45.516Z,27.89
2023-05-01T14:44:19.746Z,29.17
2023-05-01T14:46:54.066Z,28.07
2023-05-01T14:49:27.815Z,29.70
2023-05-01T14:52:02.765Z,29.79
2023-05-01T14:54:47.109Z,28.80
2023-05-01T14:57:19.616Z,28.85
2023-05-01T14:59:51.960Z,29.80
2023-05-01T15:02:27.515Z,29.90
2023-05-01T15:05:00.269Z,30.96
2023-05-01T15:07:33.710Z,30.00
2023-05-01T15:10:09.522Z,30.05
2023-05-01T15:12:42.427Z,30.11
2023-05-01T15:15:15.321Z,30.73
2023-05-01T15:17:47.936Z,31.75
2023-05-01T15:20:20.224Z,31.04
2023-05-01T15:22:52.652Z,31.66
2023-05-01T15:25:27.467Z,30.68
2023-05-01T15:27:59.942Z,31.23
2023-05-01T15:30:32.146Z,31.74
2023-05-01T15:33:04.872Z,31.35
2023-05-01T15:35:37.021Z,31.14
2023-05-01T15:38:09.500Z,31.17
2023-05-01T15:40:47.094Z,31.61
2023-05-01T15:43:19.491Z,31.00
2023-05-01T15:45:51.786Z,31.29
2023-05-01T15:48:24.153Z,30.75
2023-05-01T15:50:56.026Z,31.04
2023-05-01T15:53:28.485Z,31.05
2023-05-01T15:56:03.543Z,31.16
2023-05-01T15:58:36.084Z,30.83
2023-05-01T16:01:09.374Z,31.00
2023-05-01T16:03:47.667Z,31.67
2023-05-01T16:06:20.137Z,31.18
2023-05-01T16:08:52.478Z,31.56
2023-05-01T16:11:27.418Z,31.77
2023-05-01T16:13:59.676Z,31.34
2023-05-01T16:16:32.630Z,31.07
2023-05-01T16:19:05.109Z,31.72
2023-05-01T16:21:37.180Z,31.32
2023-05-01T16:24:10.122Z,31.63
2023-05-01T16:26:44.916Z,31.03
2023-05-01T16:29:17.230Z,31.35
2023-05-01T16:31:50.005Z,31.00
2023-05-01T16:34:28.742Z,29.94
2023-05-01T16:37:00.793Z,30.33
2023-05-01T16:39:33.045Z,30.14
2023-05-01T16:42:07.872Z,29.11
2023-05-01T16:44:40.154Z,29.76
2023-05-01T16:47:15.155Z,30.22
2023-05-01T16:49:47.761Z,30.09
2023-05-01T16:52:19.732Z,29.94
2023-05-01T16:54:52.141Z,31.64
2023-05-01T16:57:26.980Z,31.43
2023-05-01T16:59:59.651Z,30.78
2023-05-01T17:02:36.602Z,30.79
2023-05-01T17:05:10.121Z,31.28
2023-05-01T17:07:42.208Z,31.06
2023-05-01T17:10:14.761Z,31.48
2023-05-01T17:12:49.582Z,31.70
2023-05-01T17:15:22.196Z,31.53
2023-05-01T17:17:54.454Z,31.53
2023-05-01T17:20:27.772Z,32.29
2023-05-01T17:23:07.376Z,33.29
2023-05-01T17:25:40.054Z,34.69
2023-05-01T17:28:15.320Z,34.03
2023-05-01T17:30:47.944Z,34.42
2023-05-01T17:33:20.356Z,32.91
2023-05-01T17:35:55.853Z,33.34
2023-05-01T17:38:31.332Z,33.66
2023-05-01T17:41:06.767Z,33.56
2023-05-01T17:43:45.768Z,33.44
2023-05-01T17:46:21.218Z,34.58
2023-05-01T17:49:10.382Z,34.04
2023-05-01T17:51:56.201Z,34.64
2023-05-01T17:54:36.054Z,34.47
2023-05-01T17:57:17.826Z,33.98
2023-05-01T17:59:54.159Z,34.33
2023-05-01T18:02:28.113Z,34.31
2023-05-01T18:05:07.248Z,34.29
2023-05-01T18:07:42.564Z,34.07
2023-05-01T18:10:20.963Z,34.77
2023-05-01T18:12:56.553Z,35.40
2023-05-01T18:19:12.368Z,35.73
2023-05-01T18:21:44.950Z,35.83
2023-05-01T18:24:17.383Z,36.83
2023-05-01T18:26:49.520Z,37.40
2023-05-01T18:29:23.304Z,36.34
2023-05-01T18:31:57.966Z,37.78
2023-05-01T18:34:30.545Z,37.49
2023-05-01T18:37:03.128Z,37.67
2023-05-01T18:39:35.569Z,38.67
2023-05-01T18:42:07.647Z,37.81
2023-05-01T18:47:35.484Z,38.51
2023-05-01T18:50:08.752Z,39.92
2023-05-01T18:52:42.335Z,39.93
2023-05-01T18:55:14.708Z,39.79
2023-05-01T18:57:48.706Z,40.71
2023-05-01T19:00:21.793Z,41.45
2023-05-01T19:02:56.443Z,41.89
2023-05-01T19:05:29.031Z,41.58
2023-05-01T19:08:05.711Z,41.99
2023-05-01T19:10:38.165Z,42.11
2023-05-01T19:13:10.664Z,42.31
2023-05-01T19:15:44.005Z,43.64
2023-05-01T19:18:18.680Z,44.35
2023-05-01T19:20:51.341Z,44.28
2023-05-01T19:23:23.358Z,44.77
2023-05-01T19:25:55.742Z,45.01
2023-05-01T19:28:27.601Z,45.99
2023-05-01T19:31:00.042Z,46.38
2023-05-01T19:33:34.720Z,46.69
2023-05-01T19:36:07.539Z,47.01
2023-05-01T19:38:39.580Z,48.55
2023-05-01T19:41:14.121Z,47.53
2023-05-01T19:43:46.161Z,47.65
2023-05-01T19:46:18.518Z,48.26
2023-05-01T19:48:54.355Z,48.28
2023-05-01T19:51:27.054Z,48.76
2023-05-01T19:53:59.442Z,49.25
2023-05-01T19:56:32.050Z,48.93
2023-05-01T19:59:04.249Z,50.19
2023-05-01T20:01:37.282Z,50.02
2023-05-01T20:04:12.407Z,50.71
2023-05-01T20:06:45.190Z,50.90
2023-05-01T20:09:17.242Z,51.01
2023-05-01T20:11:50.066Z,51.15
2023-05-01T20:14:22.306Z,50.78
2023-05-01T20:16:54.995Z,52.51
2023-05-01T20:19:31.970Z,52.31
2023-05-01T20:22:04.764Z,52.84
2023-05-01T20:24:37.103Z,53.26
2023-05-01T20:27:10.070Z,53.24
2023-05-01T20:29:42.748Z,53.51
2023-05-01T20:32:15.629Z,53.60
2023-05-01T20:34:50.582Z,53.40
2023-05-01T20:37:23.265Z,53.86
2023-05-01T20:39:55.465Z,53.75
2023-05-01T20:42:28.268Z,53.33
2023-05-01T20:45:14.846Z,55.56
2023-05-01T20:47:47.481Z,54.49
2023-05-01T20:50:22.611Z,54.60
2023-05-01T20:52:56.584Z,54.80
2023-05-01T20:55:30.329Z,55.44
2023-05-01T20:58:03.250Z,55.59
2023-05-01T21:00:37.564Z,54.20
2023-05-01T21:03:10.730Z,55.54
2023-05-01T21:05:46.182Z,54.72
2023-05-01T21:08:18.943Z,54.72
2023-05-01T21:10:51.165Z,54.67
2023-05-01T21:13:25.323Z,54.89
2023-05-01T21:15:58.040Z,54.70
2023-05-01T21:18:33.262Z,55.20
2023-05-01T21:21:08.278Z,55.70
2023-05-01T21:23:49.770Z,55.47
2023-05-01T21:26:22.312Z,55.20
2023-05-01T21:28:55.062Z,55.07
2023-05-01T21:31:33.866Z,54.92
2023-05-01T21:34:06.620Z,55.61
2023-05-01T21:36:47.189Z,55.14
2023-05-01T21:39:22.253Z,55.75
2023-05-01T21:41:54.697Z,54.77
2023-05-01T21:44:32.857Z,55.40
2023-05-01T21:47:05.331Z,54.90
2023-05-01T21:49:38.484Z,54.45
2023-05-01T21:52:15.859Z,54.28
2023-05-01T21:54:48.549Z,56.17
2023-05-01T21:57:20.975Z,54.47
2023-05-01T21:59:57.578Z,55.34
2023-05-01T22:06:06.698Z,53.76
2023-05-01T22:08:46.918Z,53.89
2023-05-01T22:11:25.630Z,53.29
2023-05-01T22:14:00.027Z,54.17
2023-05-01T22:16:33.287Z,54.74
2023-05-01T22:19:07.869Z,55.37
2023-05-01T22:21:41.273Z,53.81
2023-05-01T22:24:17.220Z,51.90
2023-05-01T22:26:50.625Z,50.31
2023-05-01T22:29:23.147Z,49.33
2023-05-01T22:31:58.254Z,48.53
2023-05-01T22:34:31.587Z,47.80
2023-05-01T22:37:05.334Z,46.29
2023-05-01T22:39:44.081Z,45.89
2023-05-01T22:42:19.907Z,45.48
2023-05-01T22:44:52.869Z,44.20
2023-05-01T22:47:25.908Z,43.81
2023-05-01T22:49:58.459Z,42.50
2023-05-01T22:52:46.756Z,41.95
2023-05-01T22:55:21.918Z,42.00
2023-05-01T22:57:54.484Z,41.66
2023-05-01T23:00:26.794Z,41.79
2023-05-01T23:02:59.604Z,41.15
2023-05-01T23:05:32.029Z,41.87
2023-05-01T23:08:04.726Z,41.30
2023-05-01T23:10:44.473Z,41.50
2023-05-01T23:13:23.811Z,41.25
2023-05-01T23:15:56.544Z,41.73
2023-05-01T23:18:34.508Z,41.02
2023-05-01T23:21:06.913Z,40.91
2023-05-01T23:23:40.984Z,41.15
2023-05-01T23:26:26.645Z,40.09
2023-05-01T23:29:00.552Z,40.05
2023-05-01T23:31:33.205Z,40.14
2023-05-01T23:34:06.092Z,40.28
2023-05-01T23:36:38.362Z,39.56
2023-05-01T23:39:10.963Z,39.33
2023-05-01T23:41:46.677Z,39.68
2023-05-01T23:44:30.818Z,39.19
2023-05-01T23:47:03.490Z,39.28
2023-05-01T23:49:36.257Z,39.18
2023-05-01T23:52:33.592Z,39.37
2023-05-01T23:55:06.344Z,39.67
2023-05-01T23:57:41.296Z,39.73
